sensor_id;sensor_type;location;lat;lon;timestamp;pressure;altitude;pressure_sealevel;temperature;humidity
11692;BME280;33659;42.672;23.354;2023-02-18T00:01:16;95082.16;;;9.13;43.15
11692;BME280;33659;42.672;23.354;2023-02-18T00:03:43;95084.63;;;9.18;43.08
11692;BME280;33659;42.672;23.354;2023-02-18T00:06:12;95085.16;;;8.98;43.33
11692;BME280;33659;42.672;23.354;2023-02-18T00:08:39;95080.94;;;8.57;43.74
11692;BME280;33659;42.672;23.354;2023-02-18T00:11:08;95083.81;;;8.20;44.78
11692;BME280;33659;42.672;23.354;2023-02-18T00:13:35;95073.38;;;7.97;45.11
11692;BME280;33659;42.672;23.354;2023-02-18T00:16:01;95071.19;;;7.77;45.78
11692;BME280;33659;42.672;23.354;2023-02-18T00:18:29;95064.09;;;7.69;45.87
11692;BME280;33659;42.672;23.354;2023-02-18T00:20:55;95056.84;;;7.79;45.97
11692;BME280;33659;42.672;23.354;2023-02-18T00:23:22;95061.66;;;7.86;46.16
11692;BME280;33659;42.672;23.354;2023-02-18T00:25:49;95046.78;;;8.00;45.66
11692;BME280;33659;42.672;23.354;2023-02-18T00:28:17;95048.28;;;8.15;45.15
11692;BME280;33659;42.672;23.354;2023-02-18T00:30:43;95052.66;;;8.28;44.77
11692;BME280;33659;42.672;23.354;2023-02-18T00:33:10;95043.41;;;8.36;44.33
11692;BME280;33659;42.672;23.354;2023-02-18T00:35:37;95034.91;;;8.44;44.14
11692;BME280;33659;42.672;23.354;2023-02-18T00:38:03;95034.94;;;8.53;44.54
11692;BME280;33659;42.672;23.354;2023-02-18T00:40:30;95034.41;;;8.64;43.82
11692;BME280;33659;42.672;23.354;2023-02-18T00:42:57;95032.81;;;8.77;43.30
11692;BME280;33659;42.672;23.354;2023-02-18T00:45:25;95032.38;;;8.84;43.48
11692;BME280;33659;42.672;23.354;2023-02-18T00:47:51;95012.47;;;8.88;42.79
11692;BME280;33659;42.672;23.354;2023-02-18T00:50:18;95030.13;;;9.00;43.45
11692;BME280;33659;42.672;23.354;2023-02-18T00:52:45;95012.94;;;8.90;43.45
11692;BME280;33659;42.672;23.354;2023-02-18T00:55:11;95034.13;;;8.97;43.51
11692;BME280;33659;42.672;23.354;2023-02-18T00:57:38;95024.69;;;8.79;43.83
11692;BME280;33659;42.672;23.354;2023-02-18T01:00:08;95027.56;;;8.46;44.66
11692;BME280;33659;42.672;23.354;2023-02-18T01:02:36;95026.94;;;8.27;44.56
11692;BME280;33659;42.672;23.354;2023-02-18T01:05:03;95035.72;;;8.17;45.23
11692;BME280;33659;42.672;23.354;2023-02-18T01:07:30;95030.41;;;8.22;44.97
11692;BME280;33659;42.672;23.354;2023-02-18T01:09:57;95030.78;;;8.29;44.71
11692;BME280;33659;42.672;23.354;2023-02-18T01:12:23;95027.28;;;8.34;44.73
11692;BME280;33659;42.672;23.354;2023-02-18T01:14:50;95031.66;;;8.38;44.46
11692;BME280;33659;42.672;23.354;2023-02-18T01:17:17;95032.22;;;8.35;44.35
11692;BME280;33659;42.672;23.354;2023-02-18T01:19:45;95023.75;;;8.30;44.18
11692;BME280;33659;42.672;23.354;2023-02-18T01:22:11;95027.53;;;8.24;44.46
11692;BME280;33659;42.672;23.354;2023-02-18T01:24:38;95035.50;;;8.27;44.30
11692;BME280;33659;42.672;23.354;2023-02-18T01:27:05;95016.41;;;8.32;44.51
11692;BME280;33659;42.672;23.354;2023-02-18T01:29:31;95023.34;;;8.36;44.62
11692;BME280;33659;42.672;23.354;2023-02-18T01:31:58;95021.50;;;8.37;44.53
11692;BME280;33659;42.672;23.354;2023-02-18T01:34:25;95016.50;;;8.40;44.42
11692;BME280;33659;42.672;23.354;2023-02-18T01:36:54;95011.63;;;8.48;43.93
11692;BME280;33659;42.672;23.354;2023-02-18T01:39:21;95021.41;;;8.42;44.06
11692;BME280;33659;42.672;23.354;2023-02-18T01:41:47;95012.09;;;8.27;44.51
11692;BME280;33659;42.672;23.354;2023-02-18T01:44:16;94988.19;;;8.03;44.65
11692;BME280;33659;42.672;23.354;2023-02-18T01:46:43;95018.44;;;8.12;44.84
11692;BME280;33659;42.672;23.354;2023-02-18T01:49:11;95025.97;;;8.00;45.03
11692;BME280;33659;42.672;23.354;2023-02-18T01:51:42;95026.38;;;7.94;45.03
11692;BME280;33659;42.672;23.354;2023-02-18T01:54:16;95038.03;;;7.96;45.17
11692;BME280;33659;42.672;23.354;2023-02-18T01:56:46;95030.22;;;7.96;45.05
11692;BME280;33659;42.672;23.354;2023-02-18T01:59:17;95027.97;;;8.03;44.80
11692;BME280;33659;42.672;23.354;2023-02-18T02:01:47;95039.41;;;8.16;44.55
11692;BME280;33659;42.672;23.354;2023-02-18T02:04:13;95033.69;;;8.28;44.13
11692;BME280;33659;42.672;23.354;2023-02-18T02:06:40;95029.91;;;8.34;44.22
11692;BME280;33659;42.672;23.354;2023-02-18T02:09:10;95027.81;;;8.22;44.48
11692;BME280;33659;42.672;23.354;2023-02-18T02:11:58;95024.16;;;8.23;44.37
11692;BME280;33659;42.672;23.354;2023-02-18T02:14:49;95026.50;;;7.88;45.30
11692;BME280;33659;42.672;23.354;2023-02-18T02:17:29;95029.16;;;7.61;45.94
11692;BME280;33659;42.672;23.354;2023-02-18T02:20:27;95016.94;;;7.34;46.59
11692;BME280;33659;42.672;23.354;2023-02-18T02:23:27;95027.06;;;7.22;47.04
11692;BME280;33659;42.672;23.354;2023-02-18T02:26:25;95031.00;;;7.33;46.57
11692;BME280;33659;42.672;23.354;2023-02-18T02:29:38;95038.97;;;7.50;46.60
11692;BME280;33659;42.672;23.354;2023-02-18T02:32:30;95024.13;;;7.65;46.69
11692;BME280;33659;42.672;23.354;2023-02-18T02:35:04;95010.16;;;7.74;46.41
11692;BME280;33659;42.672;23.354;2023-02-18T02:37:37;95014.06;;;7.85;45.87
11692;BME280;33659;42.672;23.354;2023-02-18T02:40:17;95009.13;;;7.98;45.61
11692;BME280;33659;42.672;23.354;2023-02-18T02:42:53;95008.84;;;7.99;45.90
11692;BME280;33659;42.672;23.354;2023-02-18T02:45:28;95001.16;;;7.94;45.97
11692;BME280;33659;42.672;23.354;2023-02-18T02:48:04;94989.53;;;7.78;46.49
11692;BME280;33659;42.672;23.354;2023-02-18T02:50:40;94999.56;;;7.71;46.61
11692;BME280;33659;42.672;23.354;2023-02-18T02:53:13;94999.31;;;7.58;46.95
11692;BME280;33659;42.672;23.354;2023-02-18T02:55:42;94999.69;;;7.52;46.93
11692;BME280;33659;42.672;23.354;2023-02-18T02:58:13;94986.63;;;7.43;47.13
11692;BME280;33659;42.672;23.354;2023-02-18T03:00:50;95016.06;;;7.52;47.15
11692;BME280;33659;42.672;23.354;2023-02-18T03:03:35;95013.84;;;7.59;47.03
11692;BME280;33659;42.672;23.354;2023-02-18T03:06:26;95009.31;;;7.65;46.84
11692;BME280;33659;42.672;23.354;2023-02-18T03:09:03;95021.78;;;7.77;46.91
11692;BME280;33659;42.672;23.354;2023-02-18T03:11:42;95016.78;;;7.80;46.94
11692;BME280;33659;42.672;23.354;2023-02-18T03:14:12;95016.50;;;7.82;46.65
11692;BME280;33659;42.672;23.354;2023-02-18T03:16:46;95005.03;;;7.83;46.75
11692;BME280;33659;42.672;23.354;2023-02-18T03:19:21;95011.28;;;7.82;46.24
11692;BME280;33659;42.672;23.354;2023-02-18T03:21:53;95019.66;;;7.79;46.22
11692;BME280;33659;42.672;23.354;2023-02-18T03:24:24;95015.53;;;7.78;46.67
11692;BME280;33659;42.672;23.354;2023-02-18T03:26:55;95036.13;;;7.88;46.77
11692;BME280;33659;42.672;23.354;2023-02-18T03:29:24;95039.28;;;7.85;46.65
11692;BME280;33659;42.672;23.354;2023-02-18T03:31:54;95044.50;;;7.85;46.12
11692;BME280;33659;42.672;23.354;2023-02-18T03:34:25;95055.03;;;7.80;46.31
11692;BME280;33659;42.672;23.354;2023-02-18T03:36:56;95058.09;;;7.82;46.41
11692;BME280;33659;42.672;23.354;2023-02-18T03:39:26;95067.53;;;7.78;46.67
11692;BME280;33659;42.672;23.354;2023-02-18T03:41:54;95060.31;;;7.75;46.70
11692;BME280;33659;42.672;23.354;2023-02-18T03:44:23;95052.41;;;7.66;46.86
11692;BME280;33659;42.672;23.354;2023-02-18T03:46:50;95063.63;;;7.67;46.55
11692;BME280;33659;42.672;23.354;2023-02-18T03:49:17;95066.31;;;7.62;46.42
11692;BME280;33659;42.672;23.354;2023-02-18T03:51:44;95074.75;;;7.53;46.79
11692;BME280;33659;42.672;23.354;2023-02-18T03:54:13;95071.69;;;7.51;46.62
11692;BME280;33659;42.672;23.354;2023-02-18T03:56:39;95062.97;;;7.47;46.73
11692;BME280;33659;42.672;23.354;2023-02-18T03:59:07;95067.28;;;7.11;47.73
11692;BME280;33659;42.672;23.354;2023-02-18T04:01:34;95064.22;;;6.76;48.75
11692;BME280;33659;42.672;23.354;2023-02-18T04:04:01;95067.81;;;6.29;50.16
11692;BME280;33659;42.672;23.354;2023-02-18T04:06:28;95060.88;;;5.86;51.52
11692;BME280;33659;42.672;23.354;2023-02-18T04:08:55;95061.16;;;5.42;52.85
11692;BME280;33659;42.672;23.354;2023-02-18T04:11:23;95051.69;;;5.32;52.90
11692;BME280;33659;42.672;23.354;2023-02-18T04:13:49;95045.72;;;5.32;53.42
11692;BME280;33659;42.672;23.354;2023-02-18T04:16:16;95054.44;;;5.41;53.56
11692;BME280;33659;42.672;23.354;2023-02-18T04:18:43;95029.78;;;5.43;53.34
11692;BME280;33659;42.672;23.354;2023-02-18T04:21:10;95040.53;;;5.56;53.11
11692;BME280;33659;42.672;23.354;2023-02-18T04:23:36;95036.19;;;5.51;53.38
11692;BME280;33659;42.672;23.354;2023-02-18T04:26:03;95041.41;;;5.46;52.99
11692;BME280;33659;42.672;23.354;2023-02-18T04:28:31;95028.25;;;5.42;53.38
11692;BME280;33659;42.672;23.354;2023-02-18T04:30:58;95033.31;;;5.53;53.51
11692;BME280;33659;42.672;23.354;2023-02-18T04:33:25;95034.59;;;5.74;52.85
11692;BME280;33659;42.672;23.354;2023-02-18T04:35:51;95030.94;;;5.75;52.70
11692;BME280;33659;42.672;23.354;2023-02-18T04:38:18;95018.75;;;5.76;53.02
11692;BME280;33659;42.672;23.354;2023-02-18T04:40:45;95024.69;;;6.00;52.45
11692;BME280;33659;42.672;23.354;2023-02-18T04:43:11;94996.44;;;5.98;51.91
11692;BME280;33659;42.672;23.354;2023-02-18T04:45:40;95028.38;;;6.32;51.58
11692;BME280;33659;42.672;23.354;2023-02-18T04:48:06;95034.34;;;6.46;51.17
11692;BME280;33659;42.672;23.354;2023-02-18T04:50:33;95038.81;;;6.59;50.87
11692;BME280;33659;42.672;23.354;2023-02-18T04:53:00;95041.81;;;6.66;50.71
11692;BME280;33659;42.672;23.354;2023-02-18T04:55:27;95044.50;;;6.75;50.65
11692;BME280;33659;42.672;23.354;2023-02-18T04:57:54;95031.16;;;6.82;50.16
11692;BME280;33659;42.672;23.354;2023-02-18T05:00:20;95033.19;;;6.71;50.34
11692;BME280;33659;42.672;23.354;2023-02-18T05:02:48;95053.56;;;6.77;50.26
11692;BME280;33659;42.672;23.354;2023-02-18T05:05:15;95056.91;;;6.64;50.61
11692;BME280;33659;42.672;23.354;2023-02-18T05:07:42;95064.47;;;6.61;50.71
11692;BME280;33659;42.672;23.354;2023-02-18T05:10:09;95059.28;;;6.61;50.69
11692;BME280;33659;42.672;23.354;2023-02-18T05:12:36;95047.38;;;6.60;50.63
11692;BME280;33659;42.672;23.354;2023-02-18T05:15:03;95051.78;;;6.59;50.66
11692;BME280;33659;42.672;23.354;2023-02-18T05:17:30;95035.19;;;6.41;51.10
11692;BME280;33659;42.672;23.354;2023-02-18T05:19:58;95057.44;;;6.29;51.60
11692;BME280;33659;42.672;23.354;2023-02-18T05:22:25;95027.88;;;6.11;51.82
11692;BME280;33659;42.672;23.354;2023-02-18T05:24:51;95046.03;;;6.11;51.90
11692;BME280;33659;42.672;23.354;2023-02-18T05:27:18;95032.78;;;5.75;52.13
11692;BME280;33659;42.672;23.354;2023-02-18T05:29:45;95046.94;;;5.39;53.59
11692;BME280;33659;42.672;23.354;2023-02-18T05:32:11;95047.53;;;5.07;54.47
11692;BME280;33659;42.672;23.354;2023-02-18T05:34:38;95051.44;;;4.81;55.70
11692;BME280;33659;42.672;23.354;2023-02-18T05:37:06;95045.00;;;4.78;55.92
11692;BME280;33659;42.672;23.354;2023-02-18T05:39:33;95038.69;;;4.60;56.16
11692;BME280;33659;42.672;23.354;2023-02-18T05:41:59;95053.41;;;4.65;56.33
11692;BME280;33659;42.672;23.354;2023-02-18T05:44:26;95040.53;;;4.84;56.12
11692;BME280;33659;42.672;23.354;2023-02-18T05:46:55;95040.00;;;5.11;55.57
11692;BME280;33659;42.672;23.354;2023-02-18T05:49:23;95043.28;;;5.40;54.89
11692;BME280;33659;42.672;23.354;2023-02-18T05:51:49;95043.50;;;5.68;54.25
11692;BME280;33659;42.672;23.354;2023-02-18T05:54:17;95055.13;;;5.89;53.24
11692;BME280;33659;42.672;23.354;2023-02-18T05:56:44;95055.44;;;6.07;53.05
11692;BME280;33659;42.672;23.354;2023-02-18T05:59:11;95059.28;;;6.28;52.41
11692;BME280;33659;42.672;23.354;2023-02-18T06:01:38;95065.59;;;6.55;51.94
11692;BME280;33659;42.672;23.354;2023-02-18T06:04:04;95076.78;;;6.69;51.30
11692;BME280;33659;42.672;23.354;2023-02-18T06:06:31;95066.44;;;6.83;51.01
11692;BME280;33659;42.672;23.354;2023-02-18T06:08:58;95065.13;;;6.85;50.31
11692;BME280;33659;42.672;23.354;2023-02-18T06:11:26;95053.72;;;6.67;50.44
11692;BME280;33659;42.672;23.354;2023-02-18T06:13:53;95059.25;;;6.47;50.98
11692;BME280;33659;42.672;23.354;2023-02-18T06:16:19;95063.97;;;6.26;51.56
11692;BME280;33659;42.672;23.354;2023-02-18T06:18:46;95058.16;;;6.15;52.25
11692;BME280;33659;42.672;23.354;2023-02-18T06:21:13;95056.03;;;6.17;51.99
11692;BME280;33659;42.672;23.354;2023-02-18T06:23:39;95046.03;;;6.11;52.47
11692;BME280;33659;42.672;23.354;2023-02-18T06:26:06;95059.22;;;5.95;52.70
11692;BME280;33659;42.672;23.354;2023-02-18T06:28:34;95069.13;;;5.88;52.98
11692;BME280;33659;42.672;23.354;2023-02-18T06:31:01;95050.34;;;5.78;52.70
11692;BME280;33659;42.672;23.354;2023-02-18T06:33:28;95024.13;;;5.41;53.96
11692;BME280;33659;42.672;23.354;2023-02-18T06:35:56;95041.22;;;5.42;54.35
11692;BME280;33659;42.672;23.354;2023-02-18T06:38:23;95041.25;;;5.37;54.48
11692;BME280;33659;42.672;23.354;2023-02-18T06:40:50;95053.66;;;5.40;54.48
11692;BME280;33659;42.672;23.354;2023-02-18T06:43:18;95050.91;;;5.56;54.19
11692;BME280;33659;42.672;23.354;2023-02-18T06:45:46;95045.66;;;5.80;53.87
11692;BME280;33659;42.672;23.354;2023-02-18T06:48:13;95054.09;;;6.09;53.53
11692;BME280;33659;42.672;23.354;2023-02-18T06:50:41;95059.19;;;6.33;52.68
11692;BME280;33659;42.672;23.354;2023-02-18T06:53:08;95046.94;;;6.39;51.87
11692;BME280;33659;42.672;23.354;2023-02-18T06:55:34;95042.06;;;6.51;52.04
11692;BME280;33659;42.672;23.354;2023-02-18T06:58:01;95048.97;;;6.56;52.01
11692;BME280;33659;42.672;23.354;2023-02-18T07:00:28;95055.00;;;6.70;51.99
11692;BME280;33659;42.672;23.354;2023-02-18T07:02:56;95049.47;;;6.90;51.41
11692;BME280;33659;42.672;23.354;2023-02-18T07:05:22;95051.88;;;7.14;50.82
11692;BME280;33659;42.672;23.354;2023-02-18T07:07:49;95048.63;;;7.36;50.38
11692;BME280;33659;42.672;23.354;2023-02-18T07:10:16;95044.75;;;7.61;49.69
11692;BME280;33659;42.672;23.354;2023-02-18T07:12:42;95046.72;;;7.78;49.47
11692;BME280;33659;42.672;23.354;2023-02-18T07:15:09;95051.03;;;7.96;48.39
11692;BME280;33659;42.672;23.354;2023-02-18T07:17:36;95036.13;;;8.10;47.92
11692;BME280;33659;42.672;23.354;2023-02-18T07:20:05;95039.50;;;8.25;47.48
11692;BME280;33659;42.672;23.354;2023-02-18T07:22:32;95035.03;;;8.39;46.85
11692;BME280;33659;42.672;23.354;2023-02-18T07:24:59;95028.53;;;8.50;46.65
11692;BME280;33659;42.672;23.354;2023-02-18T07:27:25;95041.88;;;8.57;46.46
11692;BME280;33659;42.672;23.354;2023-02-18T07:29:52;95029.78;;;8.61;46.35
11692;BME280;33659;42.672;23.354;2023-02-18T07:32:19;95042.22;;;8.64;46.35
11692;BME280;33659;42.672;23.354;2023-02-18T07:34:46;95047.03;;;8.80;45.74
11692;BME280;33659;42.672;23.354;2023-02-18T07:37:14;95051.31;;;8.76;45.92
11692;BME280;33659;42.672;23.354;2023-02-18T07:39:41;95053.03;;;8.80;46.29
11692;BME280;33659;42.672;23.354;2023-02-18T07:42:08;95059.34;;;8.88;46.15
11692;BME280;33659;42.672;23.354;2023-02-18T07:44:35;95057.56;;;8.97;45.77
11692;BME280;33659;42.672;23.354;2023-02-18T07:47:02;95060.28;;;8.92;45.71
11692;BME280;33659;42.672;23.354;2023-02-18T07:49:29;95062.16;;;9.00;45.15
11692;BME280;33659;42.672;23.354;2023-02-18T07:51:56;95053.56;;;8.91;45.09
11692;BME280;33659;42.672;23.354;2023-02-18T07:54:24;95048.91;;;8.88;44.85
11692;BME280;33659;42.672;23.354;2023-02-18T07:56:51;95055.81;;;8.84;45.27
11692;BME280;33659;42.672;23.354;2023-02-18T07:59:19;95059.50;;;8.60;45.36
11692;BME280;33659;42.672;23.354;2023-02-18T08:01:46;95057.25;;;8.45;46.09
11692;BME280;33659;42.672;23.354;2023-02-18T08:04:12;95057.19;;;8.00;47.14
11692;BME280;33659;42.672;23.354;2023-02-18T08:06:42;95058.88;;;7.69;48.00
11692;BME280;33659;42.672;23.354;2023-02-18T08:09:11;95055.53;;;7.54;48.22
11692;BME280;33659;42.672;23.354;2023-02-18T08:11:39;95059.94;;;7.68;48.40
11692;BME280;33659;42.672;23.354;2023-02-18T08:14:06;95050.66;;;7.89;48.01
11692;BME280;33659;42.672;23.354;2023-02-18T08:16:33;95053.31;;;7.98;47.78
11692;BME280;33659;42.672;23.354;2023-02-18T08:19:02;95032.59;;;8.06;47.67
11692;BME280;33659;42.672;23.354;2023-02-18T08:21:29;95026.44;;;8.02;47.56
11692;BME280;33659;42.672;23.354;2023-02-18T08:23:56;95037.81;;;8.06;47.81
11692;BME280;33659;42.672;23.354;2023-02-18T08:26:23;95041.72;;;8.18;47.53
11692;BME280;33659;42.672;23.354;2023-02-18T08:28:51;95047.34;;;8.33;47.30
11692;BME280;33659;42.672;23.354;2023-02-18T08:31:20;95035.53;;;8.50;46.98
11692;BME280;33659;42.672;23.354;2023-02-18T08:33:47;95052.06;;;8.45;46.81
11692;BME280;33659;42.672;23.354;2023-02-18T08:36:14;95044.38;;;8.40;46.94
11692;BME280;33659;42.672;23.354;2023-02-18T08:38:41;95057.63;;;8.52;46.57
11692;BME280;33659;42.672;23.354;2023-02-18T08:41:08;95045.16;;;8.72;46.98
11692;BME280;33659;42.672;23.354;2023-02-18T08:43:35;95022.81;;;9.02;45.97
11692;BME280;33659;42.672;23.354;2023-02-18T08:46:04;95035.13;;;9.27;45.04
11692;BME280;33659;42.672;23.354;2023-02-18T08:48:31;95033.84;;;9.47;44.92
11692;BME280;33659;42.672;23.354;2023-02-18T08:50:58;95043.38;;;9.60;44.85
11692;BME280;33659;42.672;23.354;2023-02-18T08:53:25;95042.81;;;9.81;44.51
11692;BME280;33659;42.672;23.354;2023-02-18T08:55:51;95043.91;;;10.06;43.71
11692;BME280;33659;42.672;23.354;2023-02-18T08:58:18;95043.91;;;10.23;43.26
11692;BME280;33659;42.672;23.354;2023-02-18T09:00:45;95038.84;;;10.35;42.80
11692;BME280;33659;42.672;23.354;2023-02-18T09:03:14;95034.84;;;10.29;42.84
11692;BME280;33659;42.672;23.354;2023-02-18T09:05:41;95037.91;;;10.22;42.71
11692;BME280;33659;42.672;23.354;2023-02-18T09:08:08;95047.00;;;10.25;43.16
11692;BME280;33659;42.672;23.354;2023-02-18T09:10:34;95034.38;;;10.36;42.67
11692;BME280;33659;42.672;23.354;2023-02-18T09:13:01;95031.66;;;10.32;42.91
11692;BME280;33659;42.672;23.354;2023-02-18T09:15:28;95037.78;;;10.45;42.90
11692;BME280;33659;42.672;23.354;2023-02-18T09:17:56;95030.53;;;10.59;42.54
11692;BME280;33659;42.672;23.354;2023-02-18T09:20:25;95024.25;;;10.43;42.34
11692;BME280;33659;42.672;23.354;2023-02-18T09:22:52;95039.91;;;10.51;42.48
11692;BME280;33659;42.672;23.354;2023-02-18T09:25:18;95037.44;;;10.55;42.46
11692;BME280;33659;42.672;23.354;2023-02-18T09:27:45;95040.53;;;10.57;42.20
11692;BME280;33659;42.672;23.354;2023-02-18T09:30:12;95027.91;;;10.59;41.93
11692;BME280;33659;42.672;23.354;2023-02-18T09:32:39;95024.84;;;10.48;42.20
11692;BME280;33659;42.672;23.354;2023-02-18T09:35:06;95022.59;;;10.38;42.79
11692;BME280;33659;42.672;23.354;2023-02-18T09:37:34;95016.25;;;10.48;42.42
11692;BME280;33659;42.672;23.354;2023-02-18T09:40:01;95009.97;;;10.57;42.68
11692;BME280;33659;42.672;23.354;2023-02-18T09:42:30;95007.28;;;10.83;42.16
11692;BME280;33659;42.672;23.354;2023-02-18T09:44:59;95003.75;;;11.18;41.50
11692;BME280;33659;42.672;23.354;2023-02-18T09:47:30;95002.63;;;11.57;41.26
11692;BME280;33659;42.672;23.354;2023-02-18T09:50:04;95013.22;;;11.90;40.28
11692;BME280;33659;42.672;23.354;2023-02-18T09:52:34;95003.44;;;12.20;39.72
11692;BME280;33659;42.672;23.354;2023-02-18T09:55:15;95015.25;;;12.59;38.80
11692;BME280;33659;42.672;23.354;2023-02-18T09:57:44;95016.09;;;12.84;38.20
11692;BME280;33659;42.672;23.354;2023-02-18T10:00:15;95008.13;;;12.93;38.07
11692;BME280;33659;42.672;23.354;2023-02-18T10:02:51;95006.25;;;12.93;38.40
11692;BME280;33659;42.672;23.354;2023-02-18T10:05:20;95001.91;;;12.97;38.19
11692;BME280;33659;42.672;23.354;2023-02-18T10:07:50;95004.97;;;13.12;37.86
11692;BME280;33659;42.672;23.354;2023-02-18T10:10:24;95001.19;;;13.21;37.80
11692;BME280;33659;42.672;23.354;2023-02-18T10:12:54;95000.19;;;13.38;37.60
11692;BME280;33659;42.672;23.354;2023-02-18T10:15:24;94976.34;;;13.55;36.84
11692;BME280;33659;42.672;23.354;2023-02-18T10:17:55;94981.22;;;13.81;36.74
11692;BME280;33659;42.672;23.354;2023-02-18T10:20:24;94982.72;;;13.95;36.21
11692;BME280;33659;42.672;23.354;2023-02-18T10:22:53;94985.16;;;14.16;36.10
11692;BME280;33659;42.672;23.354;2023-02-18T10:25:23;94988.63;;;14.32;35.58
11692;BME280;33659;42.672;23.354;2023-02-18T10:27:52;94979.97;;;14.31;35.54
11692;BME280;33659;42.672;23.354;2023-02-18T10:30:22;94975.72;;;14.27;35.43
11692;BME280;33659;42.672;23.354;2023-02-18T10:32:54;94972.50;;;14.33;35.66
11692;BME280;33659;42.672;23.354;2023-02-18T10:35:24;94978.00;;;14.28;35.20
11692;BME280;33659;42.672;23.354;2023-02-18T10:38:02;94971.63;;;14.14;35.37
11692;BME280;33659;42.672;23.354;2023-02-18T10:40:37;94956.84;;;14.09;35.63
11692;BME280;33659;42.672;23.354;2023-02-18T10:43:15;94956.50;;;14.39;35.09
11692;BME280;33659;42.672;23.354;2023-02-18T10:45:54;94931.09;;;14.43;34.88
11692;BME280;33659;42.672;23.354;2023-02-18T10:48:34;94949.13;;;14.72;34.41
11692;BME280;33659;42.672;23.354;2023-02-18T10:51:13;94945.06;;;14.90;34.02
11692;BME280;33659;42.672;23.354;2023-02-18T10:53:43;94934.44;;;14.87;34.21
11692;BME280;33659;42.672;23.354;2023-02-18T10:56:31;94936.50;;;14.78;34.19
11692;BME280;33659;42.672;23.354;2023-02-18T10:59:03;94937.41;;;15.01;33.69
11692;BME280;33659;42.672;23.354;2023-02-18T11:01:31;94942.66;;;15.33;33.11
11692;BME280;33659;42.672;23.354;2023-02-18T11:04:07;94928.09;;;15.39;33.08
11692;BME280;33659;42.672;23.354;2023-02-18T11:06:39;94922.78;;;15.20;33.17
11692;BME280;33659;42.672;23.354;2023-02-18T11:09:24;94920.59;;;15.06;33.45
11692;BME280;33659;42.672;23.354;2023-02-18T11:11:58;94916.94;;;15.10;33.36
11692;BME280;33659;42.672;23.354;2023-02-18T11:14:36;94911.63;;;15.42;32.83
11692;BME280;33659;42.672;23.354;2023-02-18T11:17:09;94892.63;;;15.68;32.45
11692;BME280;33659;42.672;23.354;2023-02-18T11:19:41;94900.75;;;15.98;31.92
11692;BME280;33659;42.672;23.354;2023-02-18T11:22:13;94893.38;;;16.07;31.81
11692;BME280;33659;42.672;23.354;2023-02-18T11:24:42;94869.50;;;16.19;31.17
11692;BME280;33659;42.672;23.354;2023-02-18T11:27:19;94882.47;;;16.09;30.67
11692;BME280;33659;42.672;23.354;2023-02-18T11:29:50;94882.56;;;16.12;30.09
11692;BME280;33659;42.672;23.354;2023-02-18T11:32:17;94872.53;;;16.21;29.71
11692;BME280;33659;42.672;23.354;2023-02-18T11:34:45;94837.50;;;16.17;29.45
11692;BME280;33659;42.672;23.354;2023-02-18T11:37:17;94861.56;;;16.39;29.37
11692;BME280;33659;42.672;23.354;2023-02-18T11:39:48;94860.00;;;16.61;29.09
11692;BME280;33659;42.672;23.354;2023-02-18T11:42:18;94853.53;;;16.77;29.02
11692;BME280;33659;42.672;23.354;2023-02-18T11:44:49;94851.66;;;17.04;28.62
11692;BME280;33659;42.672;23.354;2023-02-18T11:47:23;94840.22;;;17.23;28.64
11692;BME280;33659;42.672;23.354;2023-02-18T11:50:13;94836.00;;;17.49;28.31
11692;BME280;33659;42.672;23.354;2023-02-18T11:52:43;94840.31;;;17.60;28.17
11692;BME280;33659;42.672;23.354;2023-02-18T11:55:16;94837.00;;;17.71;28.19
11692;BME280;33659;42.672;23.354;2023-02-18T11:57:48;94826.72;;;17.92;28.02
11692;BME280;33659;42.672;23.354;2023-02-18T12:00:21;94814.00;;;18.05;27.83
11692;BME280;33659;42.672;23.354;2023-02-18T12:02:50;94805.81;;;18.17;27.78
11692;BME280;33659;42.672;23.354;2023-02-18T12:05:21;94802.13;;;18.29;27.75
11692;BME280;33659;42.672;23.354;2023-02-18T12:07:49;94799.25;;;18.45;27.71
11692;BME280;33659;42.672;23.354;2023-02-18T12:10:24;94794.09;;;18.66;27.61
11692;BME280;33659;42.672;23.354;2023-02-18T12:12:57;94790.50;;;18.88;26.46
11692;BME280;33659;42.672;23.354;2023-02-18T12:15:36;94800.38;;;18.99;26.98
11692;BME280;33659;42.672;23.354;2023-02-18T12:18:20;94802.69;;;19.04;26.84
11692;BME280;33659;42.672;23.354;2023-02-18T12:20:59;94787.09;;;18.91;27.19
11692;BME280;33659;42.672;23.354;2023-02-18T12:23:36;94781.91;;;18.54;27.66
11692;BME280;33659;42.672;23.354;2023-02-18T12:26:18;94788.81;;;18.18;28.42
11692;BME280;33659;42.672;23.354;2023-02-18T12:29:03;94794.94;;;17.85;28.96
11692;BME280;33659;42.672;23.354;2023-02-18T12:31:53;94788.78;;;17.74;29.51
11692;BME280;33659;42.672;23.354;2023-02-18T12:34:35;94776.25;;;17.67;29.84
11692;BME280;33659;42.672;23.354;2023-02-18T12:37:19;94785.00;;;17.71;29.66
11692;BME280;33659;42.672;23.354;2023-02-18T12:40:02;94765.84;;;17.48;29.87
11692;BME280;33659;42.672;23.354;2023-02-18T12:42:44;94765.91;;;17.55;30.16
11692;BME280;33659;42.672;23.354;2023-02-18T12:45:34;94754.38;;;17.70;29.98
11692;BME280;33659;42.672;23.354;2023-02-18T12:48:15;94752.94;;;17.76;29.78
11692;BME280;33659;42.672;23.354;2023-02-18T12:51:07;94749.53;;;17.72;29.71
11692;BME280;33659;42.672;23.354;2023-02-18T12:53:48;94754.44;;;17.74;29.73
11692;BME280;33659;42.672;23.354;2023-02-18T12:56:34;94751.22;;;17.95;29.37
11692;BME280;33659;42.672;23.354;2023-02-18T12:59:10;94752.16;;;18.13;28.90
11692;BME280;33659;42.672;23.354;2023-02-18T13:01:50;94757.59;;;18.34;28.19
11692;BME280;33659;42.672;23.354;2023-02-18T13:04:40;94758.44;;;18.42;28.32
11692;BME280;33659;42.672;23.354;2023-02-18T13:07:25;94762.22;;;18.48;27.98
11692;BME280;33659;42.672;23.354;2023-02-18T13:10:06;94756.06;;;18.85;27.62
11692;BME280;33659;42.672;23.354;2023-02-18T13:12:40;94756.50;;;18.98;27.57
11692;BME280;33659;42.672;23.354;2023-02-18T13:15:16;94754.16;;;18.85;27.45